sensor_id;sensor_type;location;lat;lon;timestamp;pressure;altitude;pressure_sealevel;temperature;humidity
11678;BME280;5895;41.950;24.372;2023-04-25T00:02:17;86168.06;;;6.64;100.00
11678;BME280;5895;41.950;24.372;2023-04-25T00:04:45;86159.31;;;6.65;100.00
11678;BME280;5895;41.950;24.372;2023-04-25T00:07:14;86153.13;;;6.66;100.00
11678;BME280;5895;41.950;24.372;2023-04-25T00:09:42;86163.91;;;6.63;100.00
11678;BME280;5895;41.950;24.372;2023-04-25T00:12:09;86147.97;;;6.66;100.00
11678;BME280;5895;41.950;24.372;2023-04-25T00:14:36;86149.56;;;6.67;100.00
11678;BME280;5895;41.950;24.372;2023-04-25T00:17:05;86154.38;;;6.63;100.00
11678;BME280;5895;41.950;24.372;2023-04-25T00:19:32;86146.84;;;6.62;100.00
11678;BME280;5895;41.950;24.372;2023-04-25T00:22:00;86146.06;;;6.61;100.00
11678;BME280;5895;41.950;24.372;2023-04-25T00:24:27;86140.91;;;6.61;100.00
11678;BME280;5895;41.950;24.372;2023-04-25T00:26:54;86141.13;;;6.60;100.00
11678;BME280;5895;41.950;24.372;2023-04-25T00:29:21;86139.00;;;6.57;100.00
11678;BME280;5895;41.950;24.372;2023-04-25T00:31:48;86128.72;;;6.57;100.00
11678;BME280;5895;41.950;24.372;2023-04-25T00:34:17;86133.63;;;6.58;100.00
11678;BME280;5895;41.950;24.372;2023-04-25T00:36:44;86125.53;;;6.55;100.00
11678;BME280;5895;41.950;24.372;2023-04-25T00:39:12;86130.28;;;6.58;100.00
11678;BME280;5895;41.950;24.372;2023-04-25T00:41:39;86129.13;;;6.54;100.00
11678;BME280;5895;41.950;24.372;2023-04-25T00:44:09;86138.97;;;6.45;100.00
11678;BME280;5895;41.950;24.372;2023-04-25T00:46:38;86135.69;;;6.38;100.00
11678;BME280;5895;41.950;24.372;2023-04-25T00:49:06;86129.06;;;6.30;100.00
11678;BME280;5895;41.950;24.372;2023-04-25T00:51:35;86130.63;;;6.31;100.00
11678;BME280;5895;41.950;24.372;2023-04-25T00:54:02;86130.09;;;6.29;100.00
11678;BME280;5895;41.950;24.372;2023-04-25T00:56:29;86129.16;;;6.24;100.00
11678;BME280;5895;41.950;24.372;2023-04-25T00:58:57;86117.41;;;6.28;100.00
11678;BME280;5895;41.950;24.372;2023-04-25T01:01:24;86112.59;;;6.31;100.00
11678;BME280;5895;41.950;24.372;2023-04-25T01:03:52;86119.47;;;6.38;100.00
11678;BME280;5895;41.950;24.372;2023-04-25T01:06:20;86125.91;;;6.28;100.00
11678;BME280;5895;41.950;24.372;2023-04-25T01:08:49;86131.63;;;6.19;100.00
11678;BME280;5895;41.950;24.372;2023-04-25T01:11:16;86122.19;;;6.13;100.00
11678;BME280;5895;41.950;24.372;2023-04-25T01:13:44;86122.59;;;6.09;100.00
11678;BME280;5895;41.950;24.372;2023-04-25T01:16:11;86120.25;;;6.08;100.00
11678;BME280;5895;41.950;24.372;2023-04-25T01:18:39;86118.81;;;6.12;100.00
11678;BME280;5895;41.950;24.372;2023-04-25T01:21:09;86118.25;;;6.10;100.00
11678;BME280;5895;41.950;24.372;2023-04-25T01:23:37;86123.38;;;6.10;100.00
11678;BME280;5895;41.950;24.372;2023-04-25T01:26:06;86111.44;;;6.16;100.00
11678;BME280;5895;41.950;24.372;2023-04-25T01:28:33;86106.06;;;6.17;100.00
11678;BME280;5895;41.950;24.372;2023-04-25T01:31:01;86112.94;;;6.23;100.00
11678;BME280;5895;41.950;24.372;2023-04-25T01:33:29;86117.28;;;6.23;100.00
11678;BME280;5895;41.950;24.372;2023-04-25T01:35:56;86111.69;;;6.26;100.00
11678;BME280;5895;41.950;24.372;2023-04-25T01:38:25;86112.38;;;6.33;100.00
11678;BME280;5895;41.950;24.372;2023-04-25T01:40:53;86102.84;;;6.33;100.00
11678;BME280;5895;41.950;24.372;2023-04-25T01:43:21;86101.28;;;6.32;100.00
11678;BME280;5895;41.950;24.372;2023-04-25T01:45:49;86093.00;;;6.30;100.00
11678;BME280;5895;41.950;24.372;2023-04-25T01:48:17;86089.31;;;6.38;100.00
11678;BME280;5895;41.950;24.372;2023-04-25T01:50:44;86086.50;;;6.40;100.00
11678;BME280;5895;41.950;24.372;2023-04-25T01:53:13;86080.38;;;6.41;100.00
11678;BME280;5895;41.950;24.372;2023-04-25T01:55:41;86094.03;;;6.41;100.00
11678;BME280;5895;41.950;24.372;2023-04-25T01:58:09;86093.59;;;6.44;100.00
11678;BME280;5895;41.950;24.372;2023-04-25T02:00:38;86090.81;;;6.46;100.00
11678;BME280;5895;41.950;24.372;2023-04-25T02:03:06;86092.81;;;6.44;100.00
11678;BME280;5895;41.950;24.372;2023-04-25T02:05:35;86084.84;;;6.45;100.00
11678;BME280;5895;41.950;24.372;2023-04-25T02:08:04;86088.13;;;6.41;100.00
11678;BME280;5895;41.950;24.372;2023-04-25T02:10:34;86071.06;;;6.40;100.00
11678;BME280;5895;41.950;24.372;2023-04-25T02:13:03;86067.16;;;6.37;100.00
11678;BME280;5895;41.950;24.372;2023-04-25T02:15:33;86061.63;;;6.33;100.00
11678;BME280;5895;41.950;24.372;2023-04-25T02:18:00;86063.66;;;6.31;100.00
11678;BME280;5895;41.950;24.372;2023-04-25T02:20:28;86070.84;;;6.29;100.00
11678;BME280;5895;41.950;24.372;2023-04-25T02:22:56;86070.84;;;6.29;100.00
11678;BME280;5895;41.950;24.372;2023-04-25T02:25:23;86070.47;;;6.26;100.00
11678;BME280;5895;41.950;24.372;2023-04-25T02:27:50;86078.44;;;6.24;100.00
11678;BME280;5895;41.950;24.372;2023-04-25T02:30:19;86077.06;;;6.22;100.00
11678;BME280;5895;41.950;24.372;2023-04-25T02:32:46;86075.50;;;6.21;100.00
11678;BME280;5895;41.950;24.372;2023-04-25T02:35:13;86071.91;;;6.22;100.00
11678;BME280;5895;41.950;24.372;2023-04-25T02:37:42;86074.28;;;6.23;100.00
11678;BME280;5895;41.950;24.372;2023-04-25T02:40:09;86065.44;;;6.19;100.00
11678;BME280;5895;41.950;24.372;2023-04-25T02:42:37;86074.50;;;6.22;100.00
11678;BME280;5895;41.950;24.372;2023-04-25T02:45:05;86073.16;;;6.19;100.00
11678;BME280;5895;41.950;24.372;2023-04-25T02:47:34;86075.97;;;6.18;100.00
11678;BME280;5895;41.950;24.372;2023-04-25T02:50:01;86071.59;;;6.18;100.00
11678;BME280;5895;41.950;24.372;2023-04-25T02:52:28;86068.66;;;6.15;100.00
11678;BME280;5895;41.950;24.372;2023-04-25T02:54:55;86069.44;;;6.15;100.00
11678;BME280;5895;41.950;24.372;2023-04-25T02:57:22;86074.59;;;6.15;100.00
11678;BME280;5895;41.950;24.372;2023-04-25T02:59:49;86065.84;;;6.16;100.00
11678;BME280;5895;41.950;24.372;2023-04-25T03:02:17;86071.78;;;6.17;100.00
11678;BME280;5895;41.950;24.372;2023-04-25T03:04:45;86074.59;;;6.15;100.00
11678;BME280;5895;41.950;24.372;2023-04-25T03:07:13;86073.03;;;6.14;100.00
11678;BME280;5895;41.950;24.372;2023-04-25T03:09:40;86069.78;;;6.07;100.00
11678;BME280;5895;41.950;24.372;2023-04-25T03:12:07;86071.34;;;6.08;100.00
11678;BME280;5895;41.950;24.372;2023-04-25T03:14:34;86061.47;;;6.05;100.00
11678;BME280;5895;41.950;24.372;2023-04-25T03:17:02;86058.69;;;6.06;100.00
11678;BME280;5895;41.950;24.372;2023-04-25T03:19:29;86057.09;;;6.05;100.00
11678;BME280;5895;41.950;24.372;2023-04-25T03:21:57;86053.06;;;5.98;100.00
11678;BME280;5895;41.950;24.372;2023-04-25T03:24:24;86043.88;;;6.02;100.00
11678;BME280;5895;41.950;24.372;2023-04-25T03:26:52;86051.81;;;6.00;100.00
11678;BME280;5895;41.950;24.372;2023-04-25T03:29:19;86048.91;;;5.97;100.00
11678;BME280;5895;41.950;24.372;2023-04-25T03:31:50;86040.28;;;5.91;100.00
11678;BME280;5895;41.950;24.372;2023-04-25T03:34:17;86031.75;;;5.91;100.00
11678;BME280;5895;41.950;24.372;2023-04-25T03:36:45;86037.47;;;5.93;100.00
11678;BME280;5895;41.950;24.372;2023-04-25T03:39:13;86040.47;;;5.90;100.00
11678;BME280;5895;41.950;24.372;2023-04-25T03:41:40;86040.47;;;5.90;100.00
11678;BME280;5895;41.950;24.372;2023-04-25T03:44:08;86038.88;;;5.89;100.00
11678;BME280;5895;41.950;24.372;2023-04-25T03:46:35;86040.47;;;5.90;100.00
11678;BME280;5895;41.950;24.372;2023-04-25T03:49:02;86042.22;;;5.89;100.00
11678;BME280;5895;41.950;24.372;2023-04-25T03:51:29;86044.81;;;5.89;100.00
11678;BME280;5895;41.950;24.372;2023-04-25T03:53:56;86044.81;;;5.89;100.00
11678;BME280;5895;41.950;24.372;2023-04-25T03:56:25;86048.56;;;5.93;100.00
11678;BME280;5895;41.950;24.372;2023-04-25T03:58:52;86051.34;;;5.92;100.00
11678;BME280;5895;41.950;24.372;2023-04-25T04:01:19;86060.63;;;5.93;100.00
11678;BME280;5895;41.950;24.372;2023-04-25T04:03:46;86051.91;;;5.94;100.00
11678;BME280;5895;41.950;24.372;2023-04-25T04:06:13;86057.06;;;5.94;100.00
11678;BME280;5895;41.950;24.372;2023-04-25T04:08:41;86048.91;;;5.97;100.00
11678;BME280;5895;41.950;24.372;2023-04-25T04:11:08;86055.84;;;5.96;100.00
11678;BME280;5895;41.950;24.372;2023-04-25T04:13:36;86056.06;;;5.95;100.00
11678;BME280;5895;41.950;24.372;2023-04-25T04:16:04;86058.97;;;5.98;100.00
11678;BME280;5895;41.950;24.372;2023-04-25T04:18:31;86054.63;;;5.99;100.00
11678;BME280;5895;41.950;24.372;2023-04-25T04:20:59;86051.81;;;6.00;100.00
11678;BME280;5895;41.950;24.372;2023-04-25T04:23:26;86055.19;;;6.01;100.00
11678;BME280;5895;41.950;24.372;2023-04-25T04:25:54;86063.13;;;5.99;100.00
11678;BME280;5895;41.950;24.372;2023-04-25T04:28:22;86056.97;;;6.00;100.00
11678;BME280;5895;41.950;24.372;2023-04-25T04:30:50;86058.56;;;6.01;100.00
11678;BME280;5895;41.950;24.372;2023-04-25T04:33:18;86062.47;;;6.04;100.00
11678;BME280;5895;41.950;24.372;2023-04-25T04:35:45;86064.81;;;6.05;100.00
11678;BME280;5895;41.950;24.372;2023-04-25T04:38:14;86067.19;;;6.07;100.00
11678;BME280;5895;41.950;24.372;2023-04-25T04:40:41;86062.81;;;6.07;100.00
11678;BME280;5895;41.950;24.372;2023-04-25T04:43:09;86065.59;;;6.06;100.00
11678;BME280;5895;41.950;24.372;2023-04-25T04:45:36;86057.69;;;6.07;100.00
11678;BME280;5895;41.950;24.372;2023-04-25T04:48:07;86070.09;;;6.10;100.00
11678;BME280;5895;41.950;24.372;2023-04-25T04:50:37;86060.03;;;6.09;100.00
11678;BME280;5895;41.950;24.372;2023-04-25T04:53:04;86064.38;;;6.08;100.00
11678;BME280;5895;41.950;24.372;2023-04-25T04:55:31;86062.03;;;6.07;100.00
11678;BME280;5895;41.950;24.372;2023-04-25T04:57:59;86068.16;;;6.06;100.00
11678;BME280;5895;41.950;24.372;2023-04-25T05:00:26;86064.63;;;6.07;100.00
11678;BME280;5895;41.950;24.372;2023-04-25T05:02:57;86063.59;;;6.08;100.00
11678;BME280;5895;41.950;24.372;2023-04-25T05:05:26;86064.38;;;6.08;100.00
11678;BME280;5895;41.950;24.372;2023-04-25T05:07:53;86069.66;;;6.14;100.00
11678;BME280;5895;41.950;24.372;2023-04-25T05:10:20;86063.41;;;6.21;100.00
11678;BME280;5895;41.950;24.372;2023-04-25T05:12:47;86062.97;;;6.24;100.00
11678;BME280;5895;41.950;24.372;2023-04-25T05:15:14;86064.09;;;6.28;100.00
11678;BME280;5895;41.950;24.372;2023-04-25T05:17:41;86059.66;;;6.35;100.00
11678;BME280;5895;41.950;24.372;2023-04-25T05:20:09;86061.88;;;6.44;100.00
11678;BME280;5895;41.950;24.372;2023-04-25T05:22:38;86066.16;;;6.50;100.00
11678;BME280;5895;41.950;24.372;2023-04-25T05:25:08;86061.69;;;6.57;100.00
11678;BME280;5895;41.950;24.372;2023-04-25T05:27:35;86064.28;;;6.69;100.00
11678;BME280;5895;41.950;24.372;2023-04-25T05:30:02;86059.13;;;6.80;100.00
11678;BME280;5895;41.950;24.372;2023-04-25T05:32:30;86058.25;;;6.98;98.73
11678;BME280;5895;41.950;24.372;2023-04-25T05:34:57;86052.72;;;7.18;98.31
11678;BME280;5895;41.950;24.372;2023-04-25T05:37:24;86042.81;;;7.38;98.44
11678;BME280;5895;41.950;24.372;2023-04-25T05:39:53;86052.44;;;7.55;97.15
11678;BME280;5895;41.950;24.372;2023-04-25T05:42:20;86043.75;;;7.73;96.35
11678;BME280;5895;41.950;24.372;2023-04-25T05:44:47;86036.84;;;7.90;97.04
11678;BME280;5895;41.950;24.372;2023-04-25T05:47:14;86051.06;;;8.04;95.72
11678;BME280;5895;41.950;24.372;2023-04-25T05:49:42;86052.47;;;8.12;97.43
11678;BME280;5895;41.950;24.372;2023-04-25T05:52:09;86044.47;;;8.13;99.46
11678;BME280;5895;41.950;24.372;2023-04-25T05:54:36;86045.28;;;8.14;100.00
11678;BME280;5895;41.950;24.372;2023-04-25T05:57:05;86051.44;;;8.13;100.00
11678;BME280;5895;41.950;24.372;2023-04-25T05:59:32;86047.94;;;8.19;100.00
11678;BME280;5895;41.950;24.372;2023-04-25T06:01:59;86045.00;;;8.27;99.07
11678;BME280;5895;41.950;24.372;2023-04-25T06:04:27;86041.59;;;8.38;99.44
11678;BME280;5895;41.950;24.372;2023-04-25T06:06:54;86038.63;;;8.46;99.57
11678;BME280;5895;41.950;24.372;2023-04-25T06:09:21;86031.97;;;8.51;100.00
11678;BME280;5895;41.950;24.372;2023-04-25T06:11:48;86031.28;;;8.55;100.00
11678;BME280;5895;41.950;24.372;2023-04-25T06:14:17;86035.44;;;8.56;100.00
11678;BME280;5895;41.950;24.372;2023-04-25T06:16:44;86034.72;;;8.61;100.00
11678;BME280;5895;41.950;24.372;2023-04-25T06:19:11;86035.84;;;8.65;100.00
11678;BME280;5895;41.950;24.372;2023-04-25T06:21:38;86034.31;;;8.69;100.00
11678;BME280;5895;41.950;24.372;2023-04-25T06:24:05;86041.72;;;8.77;100.00
11678;BME280;5895;41.950;24.372;2023-04-25T06:26:33;86041.88;;;8.87;99.49
11678;BME280;5895;41.950;24.372;2023-04-25T06:29:00;86040.50;;;9.01;97.77
11678;BME280;5895;41.950;24.372;2023-04-25T06:31:28;86043.78;;;9.14;98.09
11678;BME280;5895;41.950;24.372;2023-04-25T06:33:58;86045.03;;;9.28;97.36
11678;BME280;5895;41.950;24.372;2023-04-25T06:36:25;86037.47;;;9.43;98.53
11678;BME280;5895;41.950;24.372;2023-04-25T06:38:53;86037.72;;;9.64;100.00
11678;BME280;5895;41.950;24.372;2023-04-25T06:41:20;86051.66;;;9.79;98.73
11678;BME280;5895;41.950;24.372;2023-04-25T06:43:47;86048.53;;;9.77;97.13
11678;BME280;5895;41.950;24.372;2023-04-25T06:46:14;86050.13;;;9.62;95.65
11678;BME280;5895;41.950;24.372;2023-04-25T06:48:43;86059.03;;;9.49;96.18
11678;BME280;5895;41.950;24.372;2023-04-25T06:51:10;86054.50;;;9.39;95.54
11678;BME280;5895;41.950;24.372;2023-04-25T06:53:38;86055.22;;;9.35;96.40
11678;BME280;5895;41.950;24.372;2023-04-25T06:56:06;86053.34;;;9.30;97.34
11678;BME280;5895;41.950;24.372;2023-04-25T06:58:33;86055.47;;;9.33;98.38
11678;BME280;5895;41.950;24.372;2023-04-25T07:01:00;86037.34;;;9.33;99.05
11678;BME280;5895;41.950;24.372;2023-04-25T07:03:27;86052.16;;;9.38;99.07
11678;BME280;5895;41.950;24.372;2023-04-25T07:05:55;86051.84;;;9.34;98.28
11678;BME280;5895;41.950;24.372;2023-04-25T07:08:22;86056.16;;;9.28;98.14
11678;BME280;5895;41.950;24.372;2023-04-25T07:10:50;86046.44;;;9.19;98.86
11678;BME280;5895;41.950;24.372;2023-04-25T07:13:17;86051.09;;;9.17;98.69
11678;BME280;5895;41.950;24.372;2023-04-25T07:15:44;86050.59;;;9.20;98.81
11678;BME280;5895;41.950;24.372;2023-04-25T07:18:13;86054.78;;;9.21;98.83
11678;BME280;5895;41.950;24.372;2023-04-25T07:20:40;86050.56;;;9.15;98.45
11678;BME280;5895;41.950;24.372;2023-04-25T07:23:08;86051.47;;;9.09;99.52
11678;BME280;5895;41.950;24.372;2023-04-25T07:25:35;86048.84;;;9.04;99.31
11678;BME280;5895;41.950;24.372;2023-04-25T07:28:02;86050.09;;;9.01;98.97
11678;BME280;5895;41.950;24.372;2023-04-25T07:30:30;86052.28;;;8.92;100.00
11678;BME280;5895;41.950;24.372;2023-04-25T07:32:57;86059.97;;;8.87;100.00
11678;BME280;5895;41.950;24.372;2023-04-25T07:35:24;86056.53;;;8.82;99.27
11678;BME280;5895;41.950;24.372;2023-04-25T07:37:51;86067.66;;;8.82;100.00
11678;BME280;5895;41.950;24.372;2023-04-25T07:40:19;86076.91;;;8.78;100.00
11678;BME280;5895;41.950;24.372;2023-04-25T07:42:47;86057.13;;;8.72;98.92
11678;BME280;5895;41.950;24.372;2023-04-25T07:45:14;86061.03;;;8.74;98.17
11678;BME280;5895;41.950;24.372;2023-04-25T07:47:41;86057.75;;;8.79;98.78
11678;BME280;5895;41.950;24.372;2023-04-25T07:50:09;86055.41;;;8.94;97.46
11678;BME280;5895;41.950;24.372;2023-04-25T07:52:36;86054.97;;;9.36;96.75
11678;BME280;5895;41.950;24.372;2023-04-25T07:55:04;86045.16;;;9.77;94.25
11678;BME280;5895;41.950;24.372;2023-04-25T07:57:33;86044.00;;;10.12;96.20
11678;BME280;5895;41.950;24.372;2023-04-25T08:00:00;86050.69;;;10.29;95.11
11678;BME280;5895;41.950;24.372;2023-04-25T08:02:27;86051.84;;;10.39;91.09
11678;BME280;5895;41.950;24.372;2023-04-25T08:04:54;86048.38;;;10.60;88.36
11678;BME280;5895;41.950;24.372;2023-04-25T08:07:21;86046.03;;;10.85;87.91
11678;BME280;5895;41.950;24.372;2023-04-25T08:09:48;86038.63;;;11.04;87.37
11678;BME280;5895;41.950;24.372;2023-04-25T08:12:16;86044.47;;;11.22;88.40
11678;BME280;5895;41.950;24.372;2023-04-25T08:14:44;86048.09;;;11.21;88.96
11678;BME280;5895;41.950;24.372;2023-04-25T08:17:11;86041.75;;;11.01;90.42
11678;BME280;5895;41.950;24.372;2023-04-25T08:19:38;86044.25;;;10.91;89.89
11678;BME280;5895;41.950;24.372;2023-04-25T08:22:05;86052.94;;;10.75;91.54
11678;BME280;5895;41.950;24.372;2023-04-25T08:24:33;86051.19;;;10.53;91.96
11678;BME280;5895;41.950;24.372;2023-04-25T08:27:00;86055.97;;;10.40;92.52
11678;BME280;5895;41.950;24.372;2023-04-25T08:29:27;86047.69;;;10.21;92.15
11678;BME280;5895;41.950;24.372;2023-04-25T08:31:56;86053.38;;;10.18;93.29
11678;BME280;5895;41.950;24.372;2023-04-25T08:34:23;86050.22;;;10.11;94.87
11678;BME280;5895;41.950;24.372;2023-04-25T08:36:51;86060.50;;;10.05;94.71
11678;BME280;5895;41.950;24.372;2023-04-25T08:39:18;86064.91;;;10.05;94.92
11678;BME280;5895;41.950;24.372;2023-04-25T08:41:46;86071.72;;;10.11;95.64
11678;BME280;5895;41.950;24.372;2023-04-25T08:44:14;86066.41;;;10.23;95.31
11678;BME280;5895;41.950;24.372;2023-04-25T08:46:41;86062.09;;;10.28;96.14
11678;BME280;5895;41.950;24.372;2023-04-25T08:49:11;86066.59;;;10.38;97.68
11678;BME280;5895;41.950;24.372;2023-04-25T08:51:45;86064.53;;;10.40;97.81
11678;BME280;5895;41.950;24.372;2023-04-25T08:54:14;86064.28;;;10.42;96.22
11678;BME280;5895;41.950;24.372;2023-04-25T08:56:44;86061.16;;;10.40;94.84
11678;BME280;5895;41.950;24.372;2023-04-25T08:59:12;86079.25;;;10.35;94.85
11678;BME280;5895;41.950;24.372;2023-04-25T09:01:40;86071.22;;;10.36;94.39
11678;BME280;5895;41.950;24.372;2023-04-25T09:04:07;86071.03;;;10.43;93.98
11678;BME280;5895;41.950;24.372;2023-04-25T09:06:35;86076.28;;;10.48;95.06
11678;BME280;5895;41.950;24.372;2023-04-25T09:09:03;86072.91;;;10.47;97.81
11678;BME280;5895;41.950;24.372;2023-04-25T09:11:32;86075.34;;;10.59;99.16
11678;BME280;5895;41.950;24.372;2023-04-25T09:14:13;86069.53;;;10.74;100.00
11678;BME280;5895;41.950;24.372;2023-04-25T09:17:00;86058.69;;;10.82;97.55
11678;BME280;5895;41.950;24.372;2023-04-25T09:19:29;86064.50;;;10.89;96.14
11678;BME280;5895;41.950;24.372;2023-04-25T09:21:59;86066.84;;;10.91;97.42
11678;BME280;5895;41.950;24.372;2023-04-25T09:24:32;86057.03;;;10.98;97.41
11678;BME280;5895;41.950;24.372;2023-04-25T09:26:59;86065.94;;;11.07;95.76
11678;BME280;5895;41.950;24.372;2023-04-25T09:29:30;86062.94;;;11.25;93.54
11678;BME280;5895;41.950;24.372;2023-04-25T09:32:15;86065.63;;;11.35;91.64
11678;BME280;5895;41.950;24.372;2023-04-25T09:34:43;86058.69;;;11.46;90.20
11678;BME280;5895;41.950;24.372;2023-04-25T09:37:12;86052.81;;;11.66;88.52
11678;BME280;5895;41.950;24.372;2023-04-25T09:39:39;86054.22;;;11.84;86.03
11678;BME280;5895;41.950;24.372;2023-04-25T09:42:07;86050.66;;;11.95;87.89
11678;BME280;5895;41.950;24.372;2023-04-25T09:44:36;86050.28;;;12.29;88.00
11678;BME280;5895;41.950;24.372;2023-04-25T09:47:03;86044.13;;;12.65;87.39
11678;BME280;5895;41.950;24.372;2023-04-25T09:49:30;86041.06;;;12.99;86.28
11678;BME280;5895;41.950;24.372;2023-04-25T09:51:58;86030.44;;;13.31;85.48
11678;BME280;5895;41.950;24.372;2023-04-25T09:54:27;86035.09;;;13.55;83.54
11678;BME280;5895;41.950;24.372;2023-04-25T09:56:54;86021.00;;;13.81;84.74
11678;BME280;5895;41.950;24.372;2023-04-25T09:59:21;86020.13;;;14.06;81.40
11678;BME280;5895;41.950;24.372;2023-04-25T10:01:49;86010.19;;;14.13;81.37
11678;BME280;5895;41.950;24.372;2023-04-25T10:04:25;86014.31;;;14.29;80.96
11678;BME280;5895;41.950;24.372;2023-04-25T10:06:56;86013.03;;;14.22;79.26
11678;BME280;5895;41.950;24.372;2023-04-25T10:09:27;86020.13;;;14.11;80.51
11678;BME280;5895;41.950;24.372;2023-04-25T10:11:58;86001.06;;;14.21;83.76
11678;BME280;5895;41.950;24.372;2023-04-25T10:14:26;86005.75;;;14.14;83.25
11678;BME280;5895;41.950;24.372;2023-04-25T10:16:53;86010.50;;;13.96;84.13
11678;BME280;5895;41.950;24.372;2023-04-25T10:19:21;85997.75;;;13.85;82.81
11678;BME280;5895;41.950;24.372;2023-04-25T10:21:52;85997.06;;;13.59;82.19
11678;BME280;5895;41.950;24.372;2023-04-25T10:24:20;85993.69;;;13.38;86.01
11678;BME280;5895;41.950;24.372;2023-04-25T10:26:49;85998.91;;;13.28;87.20
11678;BME280;5895;41.950;24.372;2023-04-25T10:29:21;86006.69;;;13.12;87.86
11678;BME280;5895;41.950;24.372;2023-04-25T10:31:49;86003.06;;;13.03;88.76
11678;BME280;5895;41.950;24.372;2023-04-25T10:34:16;86007.22;;;12.89;89.08
11678;BME280;5895;41.950;24.372;2023-04-25T10:36:49;86000.44;;;12.83;89.46
11678;BME280;5895;41.950;24.372;2023-04-25T10:39:22;86005.91;;;12.81;89.96
11678;BME280;5895;41.950;24.372;2023-04-25T10:41:56;86001.75;;;12.75;91.67
11678;BME280;5895;41.950;24.372;2023-04-25T10:44:26;85991.06;;;12.71;90.56
11678;BME280;5895;41.950;24.372;2023-04-25T10:46:55;85999.97;;;13.21;89.88
11678;BME280;5895;41.950;24.372;2023-04-25T10:49:33;85994.47;;;13.33;87.09
11678;BME280;5895;41.950;24.372;2023-04-25T10:52:18;85988.50;;;13.28;86.49
11678;BME280;5895;41.950;24.372;2023-04-25T10:54:49;85991.09;;;13.22;87.43
11678;BME280;5895;41.950;24.372;2023-04-25T10:57:30;85982.22;;;13.03;86.90
11678;BME280;5895;41.950;24.372;2023-04-25T11:00:05;85989.53;;;12.91;86.99
11678;BME280;5895;41.950;24.372;2023-04-25T11:02:36;85991.06;;;12.87;86.72
11678;BME280;5895;41.950;24.372;2023-04-25T11:05:04;85983.78;;;12.94;86.83
11678;BME280;5895;41.950;24.372;2023-04-25T11:07:38;85979.59;;;13.49;86.04
11678;BME280;5895;41.950;24.372;2023-04-25T11:10:06;85974.00;;;13.96;83.26
11678;BME280;5895;41.950;24.372;2023-04-25T11:12:35;85965.38;;;14.01;82.20
11678;BME280;5895;41.950;24.372;2023-04-25T11:15:03;85967.38;;;14.19;81.31
11678;BME280;5895;41.950;24.372;2023-04-25T11:17:31;85956.34;;;14.48;78.81
11678;BME280;5895;41.950;24.372;2023-04-25T11:19:58;85957.72;;;14.74;74.43
11678;BME280;5895;41.950;24.372;2023-04-25T11:22:26;85969.09;;;14.94;71.23
11678;BME280;5895;41.950;24.372;2023-04-25T11:24:54;85945.91;;;14.87;73.56
11678;BME280;5895;41.950;24.372;2023-04-25T11:27:21;85962.19;;;15.08;72.86
11678;BME280;5895;41.950;24.372;2023-04-25T11:29:51;85959.22;;;14.86;69.14
11678;BME280;5895;41.950;24.372;2023-04-25T11:32:18;85956.19;;;14.68;72.57
11678;BME280;5895;41.950;24.372;2023-04-25T11:34:46;85955.16;;;14.64;72.16
11678;BME280;5895;41.950;24.372;2023-04-25T11:37:14;85949.50;;;14.52;69.49
11678;BME280;5895;41.950;24.372;2023-04-25T11:39:44;85946.50;;;14.74;64.91
11678;BME280;5895;41.950;24.372;2023-04-25T11:42:13;85951.22;;;15.11;67.23
11678;BME280;5895;41.950;24.372;2023-04-25T11:44:40;85945.72;;;15.42;65.89
11678;BME280;5895;41.950;24.372;2023-04-25T11:47:08;85945.09;;;15.55;63.04
11678;BME280;5895;41.950;24.372;2023-04-25T11:49:35;85945.91;;;15.79;63.67
11678;BME280;5895;41.950;24.372;2023-04-25T11:52:03;85932.94;;;15.69;63.64
11678;BME280;5895;41.950;24.372;2023-04-25T11:54:35;85933.72;;;15.94;61.59
11678;BME280;5895;41.950;24.372;2023-04-25T11:57:02;85931.53;;;16.25;63.91
11678;BME280;5895;41.950;24.372;2023-04-25T11:59:29;85921.47;;;16.56;62.54
11678;BME280;5895;41.950;24.372;2023-04-25T12:01:57;85897.78;;;16.85;64.36
11678;BME280;5895;41.950;24.372;2023-04-25T12:04:30;85919.44;;;16.90;70.66
11678;BME280;5895;41.950;24.372;2023-04-25T12:06:58;85906.16;;;17.33;72.53
11678;BME280;5895;41.950;24.372;2023-04-25T12:09:30;85902.91;;;17.74;70.11
11678;BME280;5895;41.950;24.372;2023-04-25T12:11:59;85890.19;;;18.09;69.25
11678;BME280;5895;41.950;24.372;2023-04-25T12:14:30;85890.06;;;18.41;68.29
11678;BME280;5895;41.950;24.372;2023-04-25T12:16:59;85877.66;;;18.83;69.77
11678;BME280;5895;41.950;24.372;2023-04-25T12:19:32;85887.59;;;18.72;68.44
11678;BME280;5895;41.950;24.372;2023-04-25T12:22:00;85890.50;;;19.07;70.15
11678;BME280;5895;41.950;24.372;2023-04-25T12:24:28;85892.75;;;19.36;69.08
11678;BME280;5895;41.950;24.372;2023-04-25T12:27:00;85894.31;;;19.37;65.22
11678;BME280;5895;41.950;24.372;2023-04-25T12:29:29;85895.53;;;19.17;70.02
11678;BME280;5895;41.950;24.372;2023-04-25T12:31:57;85900.75;;;18.72;68.76
11678;BME280;5895;41.950;24.372;2023-04-25T12:34:24;85893.69;;;18.32;69.00
11678;BME280;5895;41.950;24.372;2023-04-25T12:36:53;85897.44;;;17.84;71.02
11678;BME280;5895;41.950;24.372;2023-04-25T12:39:23;85898.97;;;17.71;71.84
11678;BME280;5895;41.950;24.372;2023-04-25T12:41:51;85897.66;;;17.41;70.98
11678;BME280;5895;41.950;24.372;2023-04-25T12:44:19;85907.16;;;17.05;70.99
11678;BME280;5895;41.950;24.372;2023-04-25T12:46:47;85918.13;;;16.88;73.30
11678;BME280;5895;41.950;24.372;2023-04-25T12:49:15;85915.09;;;16.62;76.24
11678;BME280;5895;41.950;24.372;2023-04-25T12:51:42;85916.19;;;16.37;77.88
11678;BME280;5895;41.950;24.372;2023-04-25T12:54:11;85906.81;;;16.12;77.84
11678;BME280;5895;41.950;24.372;2023-04-25T12:56:38;85912.88;;;15.89;79.14
11678;BME280;5895;41.950;24.372;2023-04-25T12:59:05;85902.13;;;15.66;79.65
11678;BME280;5895;41.950;24.372;2023-04-25T13:01:32;85910.75;;;15.38;78.15
11678;BME280;5895;41.950;24.372;2023-04-25T13:03:59;85912.72;;;15.22;77.89
11678;BME280;5895;41.950;24.372;2023-04-25T13:06:27;85911.41;;;15.19;77.51
11678;BME280;5895;41.950;24.372;2023-04-25T13:08:55;85903.34;;;15.45;76.12